Time;durP1;ratioP1;P1;durP2;ratioP2;P2;SDS_P1;SDS_P2;PMS_P1;PMS_P2;Temp;Humidity;BMP_temperature;BMP_pressure;BME280_temperature;BME280_humidity;BME280_pressure;Samples;Min_cycle;Max_cycle;Signal;HPM_P1;HPM_P2
2023/09/01 00:00:48;;;;;;;3.08;1.20;;;11.80;99.90;;;;;;5104160;27;20046;-91
2023/09/01 00:03:14;;;;;;;1.48;0.95;;;11.80;99.90;;;;;;5103840;27;20078;-92
2023/09/01 00:05:39;;;;;;;5.18;1.52;;;11.80;99.90;;;;;;5086335;27;20070;-90
2023/09/01 00:08:07;;;;;;;1.58;0.90;;;11.80;99.90;;;;;;5086093;27;20118;-90
2023/09/01 00:10:35;;;;;;;;;;;11.80;99.90;;;;;;5121707;27;20063;-91
2023/09/01 00:13:02;;;;;;;3.17;0.80;;;11.80;99.90;;;;;;5103617;27;19923;-90
2023/09/01 00:15:28;;;;;;;2.63;1.40;;;11.70;99.90;;;;;;5085931;27;20452;-90
2023/09/01 00:17:54;;;;;;;4.68;1.10;;;11.70;99.90;;;;;;5101923;27;20461;-90
2023/09/01 00:20:20;;;;;;;4.15;1.30;;;11.70;99.90;;;;;;5087212;27;20048;-90
2023/09/01 00:22:46;;;;;;;4.72;1.30;;;11.70;99.90;;;;;;5100968;27;20827;-90
2023/09/01 00:25:11;;;;;;;2.80;1.10;;;11.60;99.90;;;;;;5086993;27;20043;-90
2023/09/01 00:27:37;;;;;;;3.08;1.30;;;11.70;99.90;;;;;;5076976;28;20042;-90
2023/09/01 00:30:03;;;;;;;3.05;1.15;;;11.60;99.90;;;;;;5077419;27;20035;-90
2023/09/01 00:32:29;;;;;;;1.95;1.05;;;11.60;99.90;;;;;;5078031;27;20047;-90
2023/09/01 00:34:56;;;;;;;2.00;1.20;;;11.60;99.90;;;;;;5078250;27;20450;-89
2023/09/01 00:37:23;;;;;;;2.30;1.05;;;11.60;99.90;;;;;;5101713;27;20050;-90
2023/09/01 00:39:49;;;;;;;6.35;1.20;;;;;;;;;;5076848;27;20049;-90
2023/09/01 00:42:15;;;;;;;3.40;1.60;;;11.60;99.90;;;;;;5087243;27;20043;-92
2023/09/01 00:44:40;;;;;;;4.47;1.30;;;11.60;99.90;;;;;;5103917;27;20463;-90
2023/09/01 00:47:07;;;;;;;3.42;1.13;;;11.60;99.90;;;;;;5102994;27;20035;-90
2023/09/01 00:49:35;;;;;;;4.57;1.52;;;11.60;99.90;;;;;;5103207;27;20493;-90
2023/09/01 00:52:01;;;;;;;2.28;1.10;;;11.60;99.90;;;;;;5101472;27;20119;-91
2023/09/01 00:54:27;;;;;;;3.30;1.50;;;11.50;99.90;;;;;;5077888;27;20125;-90
2023/09/01 00:56:54;;;;;;;4.85;2.30;;;11.50;99.90;;;;;;5101053;27;20128;-92
2023/09/01 00:59:20;;;;;;;;;;;11.50;99.90;;;;;;5098780;27;20058;-89
2023/09/01 01:01:47;;;;;;;4.10;1.70;;;11.50;99.90;;;;;;5097995;27;20625;-91
2023/09/01 01:04:14;;;;;;;4.22;1.98;;;11.50;99.90;;;;;;5082645;27;20035;-90
2023/09/01 01:06:58;;;;;;;3.90;1.75;;;11.50;99.90;;;;;;5083435;27;20121;-91
2023/09/01 01:09:45;;;;;;;2.88;1.70;;;11.50;99.90;;;;;;5096090;27;20280;-91
2023/09/01 01:12:20;;;;;;;2.53;1.40;;;11.50;99.90;;;;;;5096424;27;20474;-90
2023/09/01 01:14:47;;;;;;;5.47;1.27;;;11.50;99.90;;;;;;5114800;27;20039;-92
2023/09/01 01:17:18;;;;;;;3.95;1.67;;;11.50;99.90;;;;;;5106770;27;20040;-91
2023/09/01 01:20:15;;;;;;;2.45;1.13;;;11.50;99.90;;;;;;5100691;27;20047;-91
2023/09/01 01:23:11;;;;;;;3.58;1.30;;;11.50;99.90;;;;;;5060030;27;20066;-91
2023/09/01 01:25:44;;;;;;;1.98;1.17;;;11.40;99.90;;;;;;5073046;27;20074;-91
2023/09/01 01:28:10;;;;;;;2.30;1.50;;;11.40;99.90;;;;;;5086892;27;20039;-90
2023/09/01 01:30:37;;;;;;;4.50;1.20;;;11.40;99.90;;;;;;5076818;27;20043;-90
2023/09/01 01:33:03;;;;;;;2.17;1.27;;;11.40;99.90;;;;;;5084311;27;20059;-89
2023/09/01 01:36:15;;;;;;;3.13;1.40;;;11.40;99.90;;;;;;5083660;27;20100;-90
2023/09/01 01:38:45;;;;;;;2.45;1.45;;;11.30;99.90;;;;;;5094303;27;20043;-90
2023/09/01 01:41:25;;;;;;;3.78;1.48;;;11.30;99.90;;;;;;5092671;27;20044;-90
2023/09/01 01:43:54;;;;;;;2.47;1.35;;;11.30;99.90;;;;;;5103019;27;20122;-90
2023/09/01 01:46:20;;;;;;;3.38;1.50;;;11.30;99.90;;;;;;5117752;27;20100;-90
2023/09/01 01:48:46;;;;;;;4.88;2.15;;;11.20;99.90;;;;;;5076719;27;20039;-90
2023/09/01 01:51:12;;;;;;;2.50;1.60;;;11.20;99.90;;;;;;5083922;27;20042;-90
2023/09/01 01:53:38;;;;;;;4.00;1.60;;;11.20;99.90;;;;;;5086402;27;20047;-90
2023/09/01 01:56:06;;;;;;;2.67;1.38;;;11.20;99.90;;;;;;5083817;27;20046;-91
2023/09/01 01:58:31;;;;;;;4.80;1.40;;;11.20;99.90;;;;;;5119803;27;20557;-90
2023/09/01 02:00:58;;;;;;;2.15;1.50;;;11.20;99.90;;;;;;5084390;28;20046;-92
2023/09/01 02:03:24;;;;;;;2.92;1.50;;;11.20;99.90;;;;;;5084646;27;20047;-90
2023/09/01 02:05:50;;;;;;;4.18;1.58;;;11.20;99.90;;;;;;5084770;28;21213;-90
2023/09/01 02:08:15;;;;;;;3.00;1.58;;;11.20;99.90;;;;;;5100912;27;20129;-90
2023/09/01 02:10:41;;;;;;;3.83;1.60;;;11.20;99.90;;;;;;5101913;28;20036;-91
2023/09/01 02:13:07;;;;;;;2.92;1.50;;;11.20;99.90;;;;;;5084665;27;20780;-90
2023/09/01 02:15:33;;;;;;;3.70;1.60;;;11.20;99.90;;;;;;5075700;28;20034;-89
2023/09/01 02:17:58;;;;;;;3.60;1.60;;;11.10;99.90;;;;;;5093106;27;20417;-91
2023/09/01 02:20:26;;;;;;;4.32;1.40;;;11.20;99.90;;;;;;5085592;28;20043;-90
2023/09/01 02:22:53;;;;;;;3.33;1.50;;;11.10;99.90;;;;;;5100710;28;20825;-89
2023/09/01 02:25:19;;;;;;;4.68;1.52;;;11.10;99.90;;;;;;5118011;28;20872;-90
2023/09/01 02:27:45;;;;;;;3.05;1.40;;;11.10;99.90;;;;;;5086068;28;20110;-90
2023/09/01 02:30:12;;;;;;;4.68;1.73;;;;;;;;;;5100661;28;20174;-90
2023/09/01 02:32:38;;;;;;;2.20;1.60;;;11.10;99.90;;;;;;5101149;28;20039;-89
2023/09/01 02:35:06;;;;;;;3.80;1.42;;;11.10;99.90;;;;;;5085835;28;20046;-90
2023/09/01 02:37:33;;;;;;;3.47;1.55;;;11.00;99.90;;;;;;5118835;28;20050;-90
2023/09/01 02:40:00;;;;;;;2.70;1.52;;;11.00;99.90;;;;;;5101846;28;20047;-90
2023/09/01 02:42:26;;;;;;;4.63;1.50;;;10.00;99.90;;;;;;5085896;28;20156;-89
2023/09/01 02:44:52;;;;;;;3.42;1.65;;;11.10;99.90;;;;;;5083535;28;20043;-91
2023/09/01 02:47:18;;;;;;;3.80;1.63;;;11.20;99.90;;;;;;5085368;28;20039;-91
2023/09/01 02:49:43;;;;;;;5.53;1.70;;;11.10;99.90;;;;;;5075349;28;20044;-91
2023/09/01 02:52:09;;;;;;;4.38;1.67;;;11.10;99.90;;;;;;5086993;27;20035;-91
2023/09/01 02:54:35;;;;;;;5.00;1.90;;;11.10;99.90;;;;;;5079970;27;20108;-91
2023/09/01 02:57:01;;;;;;;4.85;1.67;;;11.10;99.90;;;;;;5104044;27;20047;-91
2023/09/01 02:59:26;;;;;;;3.13;1.50;;;11.10;99.90;;;;;;5086393;27;20130;-91
2023/09/01 03:01:52;;;;;;;3.67;1.70;;;11.10;99.90;;;;;;5087712;27;20066;-91
2023/09/01 03:04:18;;;;;;;2.65;1.70;;;11.10;99.90;;;;;;5078686;27;20818;-91
2023/09/01 03:06:44;;;;;;;3.15;1.70;;;11.00;99.90;;;;;;5082646;27;20039;-90
2023/09/01 03:09:10;;;;;;;3.42;1.40;;;11.00;99.90;;;;;;5083567;27;20051;-91
2023/09/01 03:11:36;;;;;;;4.38;1.83;;;11.00;99.90;;;;;;5072942;27;20108;-90
2023/09/01 03:14:04;;;;;;;2.33;1.65;;;11.00;99.90;;;;;;5091002;27;20074;-91
2023/09/01 03:16:30;;;;;;;2.58;1.48;;;10.90;99.90;;;;;;5104416;27;20051;-90
2023/09/01 03:18:59;;;;;;;3.75;1.38;;;10.90;99.90;;;;;;5102390;27;20047;-89
2023/09/01 03:21:30;;;;;;;4.07;1.90;;;10.90;99.90;;;;;;5095325;27;20455;-90
2023/09/01 03:23:59;;;;;;;5.82;1.92;;;10.90;99.90;;;;;;5095400;27;20108;-89
2023/09/01 03:26:25;;;;;;;2.85;1.42;;;11.00;99.90;;;;;;5104145;27;20057;-89
2023/09/01 03:28:51;;;;;;;4.80;1.90;;;11.00;99.90;;;;;;5085360;27;20386;-90
2023/09/01 03:31:17;;;;;;;2.97;1.70;;;11.00;99.90;;;;;;5122390;27;20035;-90
2023/09/01 03:33:43;;;;;;;3.53;1.80;;;10.90;99.90;;;;;;5079409;27;20107;-89
2023/09/01 03:36:09;;;;;;;4.43;1.80;;;10.90;99.90;;;;;;5087965;27;20050;-89
2023/09/01 03:38:38;;;;;;;3.30;1.70;;;10.90;99.90;;;;;;5087446;27;20093;-92
2023/09/01 03:41:05;;;;;;;2.08;1.45;;;11.70;99.90;;;;;;5087365;27;20039;-90
2023/09/01 03:43:32;;;;;;;4.93;1.77;;;10.90;99.90;;;;;;5068685;27;20118;-90
2023/09/01 03:45:58;;;;;;;3.53;2.05;;;10.90;99.90;;;;;;5105404;27;20043;-90
2023/09/01 03:48:24;;;;;;;3.20;1.98;;;10.90;99.90;;;;;;5105398;27;20035;-92
2023/09/01 03:51:10;;;;;;;2.55;1.90;;;10.90;99.90;;;;;;5087035;27;20039;-90
2023/09/01 03:53:37;;;;;;;3.75;2.05;;;10.90;99.90;;;;;;5093922;27;20044;-91
2023/09/01 03:56:13;;;;;;;3.88;1.70;;;10.90;99.90;;;;;;5105362;27;20046;-90
2023/09/01 03:58:40;;;;;;;3.65;2.30;;;10.80;99.90;;;;;;5105474;27;20081;-89
2023/09/01 04:01:08;;;;;;;3.53;2.03;;;10.90;99.90;;;;;;5094784;27;20051;-90
2023/09/01 04:03:42;;;;;;;4.25;2.08;;;10.90;99.90;;;;;;5086281;27;20102;-91
2023/09/01 04:06:08;;;;;;;5.28;2.42;;;10.90;99.90;;;;;;5088516;27;20043;-90
2023/09/01 04:08:34;;;;;;;3.42;2.30;;;10.90;99.90;;;;;;5104919;27;20160;-91
2023/09/01 04:11:01;;;;;;;3.15;2.22;;;10.80;99.90;;;;;;5104489;27;20055;-91
2023/09/01 04:13:27;;;;;;;4.93;2.03;;;10.90;99.90;;;;;;5087488;27;20134;-92
2023/09/01 04:15:55;;;;;;;7.28;2.53;;;10.90;99.90;;;;;;5078769;27;21062;-92
2023/09/01 04:18:22;;;;;;;4.97;2.05;;;10.90;99.90;;;;;;5105940;27;20051;-92
2023/09/01 04:20:52;;;;;;;5.40;2.90;;;10.90;99.90;;;;;;5087738;27;20050;-92
2023/09/01 04:23:18;;;;;;;3.90;2.58;;;10.90;99.90;;;;;;5103344;27;20051;-92
2023/09/01 04:25:45;;;;;;;5.10;2.90;;;10.90;99.90;;;;;;5103735;27;20470;-92
2023/09/01 04:28:12;;;;;;;4.53;2.42;;;10.90;99.90;;;;;;5087119;27;20032;-91
2023/09/01 04:30:38;;;;;;;4.72;2.60;;;11.00;99.90;;;;;;5105043;27;20053;-92
2023/09/01 04:33:05;;;;;;;5.03;3.20;;;11.00;99.90;;;;;;5078389;27;20035;-92
2023/09/01 04:35:31;;;;;;;4.40;2.55;;;11.00;99.90;;;;;;5106372;27;20028;-93
2023/09/01 04:37:56;;;;;;;6.00;2.88;;;11.00;99.90;;;;;;5073013;27;20046;-91
2023/09/01 04:40:22;;;;;;;5.78;2.80;;;11.00;99.90;;;;;;5105179;27;20062;-92
2023/09/01 04:42:48;;;;;;;4.75;3.05;;;10.90;99.90;;;;;;5079921;27;20047;-93
2023/09/01 04:45:13;;;;;;;5.03;3.65;;;10.90;99.90;;;;;;5078567;27;20031;-92
2023/09/01 04:47:39;;;;;;;8.07;4.38;;;10.90;99.90;;;;;;5089391;27;20426;-91
2023/09/01 04:50:05;;;;;;;6.45;4.78;;;10.90;99.90;;;;;;5084851;27;20706;-90
2023/09/01 04:52:31;;;;;;;7.55;5.05;;;10.80;99.90;;;;;;5077108;27;20202;-92
2023/09/01 04:54:57;;;;;;;6.30;5.40;;;10.80;99.90;;;;;;5079247;27;20114;-93
2023/09/01 04:57:23;;;;;;;8.15;5.90;;;10.80;99.90;;;;;;5078242;27;20043;-92
2023/09/01 04:59:48;;;;;;;7.18;5.78;;;10.70;99.90;;;;;;5085563;27;20193;-91
2023/09/01 05:02:14;;;;;;;7.55;5.97;;;10.70;99.90;;;;;;5088304;27;20081;-92
2023/09/01 05:04:40;;;;;;;7.72;6.00;;;10.80;99.90;;;;;;5075362;27;20112;-92
2023/09/01 05:07:06;;;;;;;6.35;5.07;;;10.80;99.90;;;;;;5098501;27;20059;-94
2023/09/01 05:09:32;;;;;;;7.63;5.65;;;10.90;99.90;;;;;;5077428;27;20441;-94
2023/09/01 05:11:57;;;;;;;7.22;5.32;;;11.00;99.90;;;;;;5076621;27;20720;-95
2023/09/01 05:14:23;;;;;;;6.07;5.13;;;10.90;99.90;;;;;;5109598;27;20050;-96
2023/09/01 05:16:49;;;;;;;7.13;4.70;;;11.00;99.90;;;;;;5085254;27;20042;-93
2023/09/01 05:19:15;;;;;;;5.28;3.88;;;11.00;99.90;;;;;;5079453;28;20046;-95
2023/09/01 05:21:41;;;;;;;7.10;5.20;;;11.10;99.90;;;;;;5086246;27;20495;-96
2023/09/01 05:24:08;;;;;;;9.85;6.45;;;11.10;99.90;;;;;;5085308;27;20122;-95
2023/09/01 05:26:34;;;;;;;9.18;6.97;;;11.10;99.90;;;;;;5103328;28;20028;-96
2023/09/01 05:29:00;;;;;;;8.98;6.65;;;11.20;99.90;;;;;;5086645;27;20035;-95
2023/09/01 05:31:26;;;;;;;6.47;4.80;;;11.30;99.90;;;;;;5097839;27;20673;-94
2023/09/01 05:33:52;;;;;;;5.43;3.30;;;11.30;99.90;;;;;;5088594;27;20043;-94
2023/09/01 05:36:18;;;;;;;5.97;2.90;;;11.40;99.90;;;;;;5086798;27;20063;-96
2023/09/01 05:38:47;;;;;;;5.30;2.80;;;11.50;99.90;;;;;;5082285;28;20036;-95
2023/09/01 05:41:14;;;;;;;5.63;2.50;;;11.60;99.90;;;;;;5110765;27;20043;-96
2023/09/01 05:43:40;;;;;;;3.85;2.00;;;11.90;99.90;;;;;;5113976;27;20043;-96
2023/09/01 05:46:06;;;;;;;4.90;1.90;;;11.70;99.90;;;;;;5108453;27;20117;-96
2023/09/01 05:48:31;;;;;;;4.07;1.88;;;11.80;99.90;;;;;;5087012;27;20085;-95
2023/09/01 05:50:57;;;;;;;4.18;1.88;;;12.00;99.90;;;;;;5086902;28;20040;-96
2023/09/01 05:53:23;;;;;;;3.42;1.98;;;12.20;99.90;;;;;;5083136;28;20385;-96
2023/09/01 05:55:49;;;;;;;4.50;1.65;;;;;;;;;;5082046;28;20040;-96
2023/09/01 05:58:15;;;;;;;2.80;1.70;;;12.50;99.90;;;;;;5085194;28;20050;-96
2023/09/01 06:00:41;;;;;;;3.03;1.55;;;12.60;99.90;;;;;;5101002;28;20047;-95
2023/09/01 06:03:06;;;;;;;2.33;1.25;;;12.80;99.90;;;;;;5073179;27;20051;-91
2023/09/01 06:05:32;;;;;;;3.47;1.65;;;12.20;99.90;;;;;;5115573;27;20115;-95
2023/09/01 06:07:58;;;;;;;3.47;1.92;;;13.10;99.90;;;;;;5079616;28;20094;-93
2023/09/01 06:10:24;;;;;;;3.67;2.25;;;13.20;99.90;;;;;;5097902;28;20398;-96
2023/09/01 06:12:49;;;;;;;3.97;2.58;;;13.40;99.90;;;;;;5088923;28;20098;-95
2023/09/01 06:15:15;;;;;;;6.45;2.88;;;13.60;99.90;;;;;;5088665;27;20039;-94
2023/09/01 06:17:41;;;;;;;3.50;2.47;;;13.80;99.90;;;;;;5088579;28;20075;-95
2023/09/01 06:20:07;;;;;;;4.70;2.67;;;14.00;99.90;;;;;;5071673;28;20048;-94
2023/09/01 06:22:33;;;;;;;4.70;2.60;;;14.20;99.90;;;;;;5074698;28;20043;-95
2023/09/01 06:24:59;;;;;;;5.18;2.70;;;14.30;99.90;;;;;;5088713;28;20532;-90
2023/09/01 06:27:25;;;;;;;4.53;2.90;;;14.80;99.90;;;;;;5084592;28;20071;-92
2023/09/01 06:29:50;;;;;;;6.05;3.45;;;15.50;99.90;;;;;;5078520;28;20037;-94
2023/09/01 06:32:16;;;;;;;5.13;3.38;;;15.70;99.90;;;;;;5078429;28;20036;-92
2023/09/01 06:34:42;;;;;;;4.20;3.30;;;15.80;99.90;;;;;;5076995;28;20035;-93
2023/09/01 06:37:08;;;;;;;4.90;2.90;;;16.00;99.90;;;;;;5083673;28;20109;-92
2023/09/01 06:39:34;;;;;;;5.22;3.08;;;16.00;99.90;;;;;;5101575;28;20047;-95
2023/09/01 06:41:59;;;;;;;3.40;2.20;;;15.90;99.90;;;;;;5070202;28;20568;-91
2023/09/01 06:44:25;;;;;;;7.25;2.10;;;15.80;99.90;;;;;;5073563;28;20108;-93
2023/09/01 06:46:51;;;;;;;4.07;1.77;;;15.60;99.90;;;;;;5067362;28;21011;-90
2023/09/01 06:49:17;;;;;;;3.53;1.33;;;15.70;99.90;;;;;;5072595;28;20486;-92
2023/09/01 06:51:42;;;;;;;6.15;1.65;;;15.60;99.90;;;;;;5070836;28;20073;-93
2023/09/01 06:54:08;;;;;;;3.42;1.50;;;15.70;99.90;;;;;;5074744;28;20520;-91
2023/09/01 06:56:34;;;;;;;4.07;1.42;;;15.70;99.90;;;;;;5076684;28;20067;-86
2023/09/01 06:59:00;;;;;;;2.38;1.45;;;15.80;99.90;;;;;;5072587;28;20085;-84
2023/09/01 07:01:29;;;;;;;2.03;1.30;;;15.90;99.90;;;;;;5083269;28;20047;-86
2023/09/01 07:03:55;;;;;;;3.05;1.42;;;15.90;99.90;;;;;;5082721;28;20086;-91
2023/09/01 07:06:21;;;;;;;2.50;1.40;;;16.00;99.90;;;;;;5102022;27;20505;-86
2023/09/01 07:08:46;;;;;;;3.00;1.58;;;16.20;99.90;;;;;;5083347;28;20066;-86
2023/09/01 07:11:14;;;;;;;3.65;1.83;;;16.40;99.90;;;;;;5081789;28;20054;-84
2023/09/01 07:13:41;;;;;;;2.72;1.58;;;;;;;;;;5099073;28;20047;-85
2023/09/01 07:16:07;;;;;;;2.13;1.30;;;;;;;;;;5088435;28;20048;-87
2023/09/01 07:18:36;;;;;;;2.95;1.42;;;19.30;99.90;;;;;;5116476;28;20554;-87
2023/09/01 07:21:02;;;;;;;2.42;1.27;;;19.80;99.90;;;;;;5084125;28;20134;-85
2023/09/01 07:23:28;;;;;;;1.33;0.87;;;20.10;99.90;;;;;;5079219;28;20077;-89
2023/09/01 07:25:54;;;;;;;1.95;1.10;;;20.70;99.90;;;;;;5074675;27;20040;-86
2023/09/01 07:28:21;;;;;;;3.08;1.10;;;21.10;99.90;;;;;;5083670;28;20036;-93
2023/09/01 07:30:47;;;;;;;2.60;1.10;;;21.40;99.90;;;;;;5101305;28;20112;-90
2023/09/01 07:33:16;;;;;;;2.03;0.93;;;22.00;99.90;;;;;;5076390;28;20126;-94
2023/09/01 07:35:49;;;;;;;2.95;1.00;;;22.10;99.90;;;;;;5100174;27;20082;-91
2023/09/01 07:38:19;;;;;;;3.45;0.90;;;21.90;99.90;;;;;;5101441;27;20047;-90
2023/09/01 07:40:45;;;;;;;3.63;0.93;;;21.90;99.90;;;;;;5102781;27;20043;-87
2023/09/01 07:43:11;;;;;;;3.30;0.70;;;22.30;99.90;;;;;;5122095;27;20053;-90
2023/09/01 07:45:37;;;;;;;2.80;0.70;;;23.00;99.90;;;;;;5104641;27;20032;-91
2023/09/01 07:48:03;;;;;;;2.67;1.00;;;23.40;99.90;;;;;;5096572;27;20047;-89
2023/09/01 07:50:30;;;;;;;2.17;0.70;;;23.80;99.90;;;;;;5102642;27;20047;-85
2023/09/01 07:52:59;;;;;;;3.20;0.52;;;23.90;99.90;;;;;;5101405;27;20564;-87
2023/09/01 07:55:26;;;;;;;2.35;0.60;;;23.90;99.90;;;;;;5085309;27;20047;-86
2023/09/01 07:57:52;;;;;;;4.53;0.77;;;23.50;99.90;;;;;;5102385;27;20093;-90
2023/09/01 08:00:18;;;;;;;1.07;0.60;;;22.90;99.90;;;;;;5104053;27;20703;-93
2023/09/01 08:02:44;;;;;;;2.57;0.50;;;22.40;99.90;;;;;;5086826;27;20039;-87
2023/09/01 08:05:10;;;;;;;1.93;0.70;;;21.80;99.90;;;;;;5102302;27;20393;-87
2023/09/01 08:07:36;;;;;;;3.57;0.73;;;21.30;99.90;;;;;;5107169;27;20035;-94
2023/09/01 08:10:02;;;;;;;1.42;0.43;;;20.80;99.90;;;;;;5105184;27;20055;-86
2023/09/01 08:12:29;;;;;;;2.53;0.70;;;20.50;99.90;;;;;;5100478;27;20075;-92
2023/09/01 08:14:55;;;;;;;1.00;0.60;;;20.40;99.90;;;;;;5088028;27;20038;-96
2023/09/01 08:17:21;;;;;;;1.45;0.43;;;20.50;99.90;;;;;;5089992;27;20520;-94
2023/09/01 08:19:48;;;;;;;1.95;0.40;;;20.50;99.90;;;;;;5078254;27;20040;-90
2023/09/01 08:22:14;;;;;;;1.55;0.55;;;20.50;99.90;;;;;;5083484;27;20035;-88
2023/09/01 08:24:40;;;;;;;2.70;0.70;;;20.40;99.90;;;;;;5083258;27;20108;-87
2023/09/01 08:27:06;;;;;;;1.85;0.70;;;20.40;99.90;;;;;;5087377;27;20040;-93
2023/09/01 08:29:32;;;;;;;0.95;0.35;;;20.40;99.90;;;;;;5089882;27;20039;-92
2023/09/01 08:31:58;;;;;;;1.87;0.60;;;20.20;99.90;;;;;;5099258;27;20126;-90
2023/09/01 08:34:23;;;;;;;1.40;0.50;;;19.90;99.90;;;;;;5084378;27;20577;-88
2023/09/01 08:36:49;;;;;;;3.10;0.70;;;19.60;99.90;;;;;;5091015;27;20509;-86
2023/09/01 08:39:15;;;;;;;1.50;0.55;;;19.50;99.90;;;;;;5076116;27;20031;-88
2023/09/01 08:41:46;;;;;;;3.33;0.70;;;19.30;99.90;;;;;;5106569;27;20050;-89
2023/09/01 08:44:13;;;;;;;4.10;0.90;;;19.30;99.90;;;;;;5103746;27;21425;-86
2023/09/01 08:46:39;;;;;;;3.33;0.63;;;19.20;99.90;;;;;;5106271;27;20036;-90
2023/09/01 08:49:05;;;;;;;2.08;0.82;;;19.20;99.90;;;;;;5077961;27;20072;-91
2023/09/01 08:51:31;;;;;;;1.60;0.57;;;19.10;99.90;;;;;;5079733;27;20043;-90
2023/09/01 08:53:58;;;;;;;2.07;0.53;;;19.10;99.90;;;;;;5079358;27;20043;-89
2023/09/01 08:56:24;;;;;;;3.55;0.85;;;19.10;99.90;;;;;;5101850;27;20047;-90
2023/09/01 08:58:50;;;;;;;1.25;0.50;;;19.00;99.90;;;;;;5088529;28;20130;-91
2023/09/01 09:01:16;;;;;;;0.93;0.43;;;18.90;99.90;;;;;;5081744;27;20398;-91
2023/09/01 09:03:42;;;;;;;2.03;0.70;;;18.80;99.90;;;;;;5103976;27;20075;-89
2023/09/01 09:06:12;;;;;;;2.38;0.70;;;18.70;99.90;;;;;;5103501;27;20086;-91
2023/09/01 09:08:38;;;;;;;3.25;0.95;;;18.70;99.90;;;;;;5102227;28;20035;-89
2023/09/01 09:11:14;;;;;;;1.98;0.82;;;18.70;99.90;;;;;;5104119;27;20050;-89
2023/09/01 09:13:40;;;;;;;3.75;0.98;;;18.60;99.90;;;;;;5062648;28;20052;-91
2023/09/01 09:16:13;;;;;;;2.00;0.60;;;18.50;99.90;;;;;;5059194;28;20077;-86
2023/09/01 09:18:44;;;;;;;2.40;0.75;;;18.40;99.90;;;;;;5095228;27;20050;-93
2023/09/01 09:21:30;;;;;;;2.75;0.70;;;18.30;99.90;;;;;;5103547;27;21266;-90
2023/09/01 09:24:02;;;;;;;3.33;0.60;;;18.20;99.90;;;;;;5103496;27;20039;-91
2023/09/01 09:26:32;;;;;;;2.28;0.80;;;18.10;99.90;;;;;;5102991;27;20047;-87
2023/09/01 09:29:06;;;;;;;3.47;0.80;;;18.00;99.90;;;;;;5086555;27;20089;-87
2023/09/01 09:31:44;;;;;;;2.25;0.80;;;18.10;99.90;;;;;;5098660;27;20042;-90
2023/09/01 09:34:15;;;;;;;;;;;18.10;99.90;;;;;;5112024;27;20047;-88
2023/09/01 09:36:42;;;;;;;2.60;1.45;;;18.00;99.90;;;;;;5102806;27;19946;-88
2023/09/01 09:39:24;;;;;;;2.80;1.23;;;18.00;99.90;;;;;;5084430;27;20140;-87
2023/09/01 09:41:51;;;;;;;3.55;1.30;;;18.10;99.90;;;;;;5108743;27;20045;-87
2023/09/01 09:44:33;;;;;;;2.10;0.80;;;18.00;99.90;;;;;;5118270;27;20051;-86
2023/09/01 09:47:00;;;;;;;2.65;0.88;;;18.10;99.90;;;;;;5101959;27;20043;-89
2023/09/01 09:49:30;;;;;;;3.35;0.90;;;18.10;99.90;;;;;;5090911;27;20042;-87
2023/09/01 09:51:59;;;;;;;3.10;1.10;;;18.20;99.90;;;;;;5099439;27;20039;-86
2023/09/01 09:54:28;;;;;;;1.60;0.70;;;18.20;99.90;;;;;;5118936;27;20042;-85
2023/09/01 09:56:56;;;;;;;2.08;0.85;;;18.30;99.90;;;;;;5104504;27;20043;-87
2023/09/01 09:59:47;;;;;;;3.33;0.57;;;18.30;99.90;;;;;;5084580;27;20047;-89
2023/09/01 10:02:42;;;;;;;1.50;0.80;;;18.20;99.90;;;;;;5098229;27;20069;-87
2023/09/01 10:05:11;;;;;;;1.00;0.55;;;18.10;99.90;;;;;;5095067;28;20043;-86
2023/09/01 10:07:36;;;;;;;1.45;0.50;;;18.00;99.90;;;;;;5078694;27;20039;-86
2023/09/01 10:10:03;;;;;;;2.92;0.80;;;18.00;99.90;;;;;;5086069;28;20067;-87
2023/09/01 10:12:29;;;;;;;2.17;0.60;;;18.00;99.90;;;;;;5054279;28;20032;-87
2023/09/01 10:14:57;;;;;;;1.43;0.63;;;17.90;99.90;;;;;;5048458;28;20498;-88
2023/09/01 10:17:23;;;;;;;;;;;18.00;99.90;;;;;;5065669;28;20040;-87
2023/09/01 10:19:49;;;;;;;0.77;0.50;;;18.00;99.90;;;;;;5042785;28;19950;-89
2023/09/01 10:22:16;;;;;;;2.47;0.82;;;18.10;99.90;;;;;;5035811;28;20032;-87
2023/09/01 10:25:09;;;;;;;2.47;0.70;;;18.10;99.90;;;;;;5064288;28;20054;-93
2023/09/01 10:27:34;;;;;;;2.47;0.90;;;18.10;99.90;;;;;;5066340;28;20476;-88
2023/09/01 10:30:00;;;;;;;1.88;0.70;;;18.20;99.90;;;;;;5065538;28;20032;-88
2023/09/01 10:32:31;;;;;;;2.60;0.70;;;18.30;99.90;;;;;;5081251;28;20039;-86
2023/09/01 10:34:57;;;;;;;2.33;0.75;;;18.30;99.90;;;;;;5066911;28;20058;-90
2023/09/01 10:37:33;;;;;;;2.28;0.60;;;18.40;99.90;;;;;;5065963;28;20081;-90
2023/09/01 10:39:58;;;;;;;1.83;0.60;;;18.60;99.90;;;;;;5084243;28;20429;-87
2023/09/01 10:42:41;;;;;;;3.42;0.90;;;18.70;99.90;;;;;;5056511;28;20048;-87
2023/09/01 10:45:06;;;;;;;1.48;0.57;;;18.60;99.90;;;;;;5052962;28;20070;-88
2023/09/01 10:47:32;;;;;;;2.85;0.80;;;18.60;99.90;;;;;;5064605;28;20494;-92
2023/09/01 10:50:02;;;;;;;1.77;0.60;;;18.60;99.90;;;;;;5063957;28;20040;-87
2023/09/01 10:52:28;;;;;;;1.70;0.70;;;18.70;99.90;;;;;;5064827;28;20046;-88
2023/09/01 10:55:00;;;;;;;2.23;0.90;;;18.80;99.90;;;;;;5065043;28;20075;-90
2023/09/01 10:57:43;;;;;;;2.30;1.00;;;18.80;99.90;;;;;;5066618;28;21251;-86
2023/09/01 11:00:29;;;;;;;2.38;1.00;;;18.80;99.90;;;;;;5064811;28;20051;-89
2023/09/01 11:03:31;;;;;;;3.67;0.95;;;19.10;99.90;;;;;;5069636;28;20586;-90
2023/09/01 11:05:57;;;;;;;2.63;0.95;;;19.50;99.90;;;;;;5074352;28;20048;-90
2023/09/01 11:08:25;;;;;;;1.97;1.10;;;19.50;99.90;;;;;;5075034;28;20126;-93
2023/09/01 11:10:55;;;;;;;2.50;1.02;;;19.60;99.90;;;;;;5053326;28;20086;-87
2023/09/01 11:13:22;;;;;;;3.28;0.90;;;19.60;99.90;;;;;;5062608;28;20040;-87
2023/09/01 11:15:49;;;;;;;2.05;0.80;;;19.70;99.90;;;;;;5067586;28;20490;-87
2023/09/01 11:18:19;;;;;;;;;;;19.80;99.90;;;;;;5050692;28;20055;-89
2023/09/01 11:20:47;;;;;;;1.42;0.60;;;19.80;99.90;;;;;;5067996;28;19923;-88
2023/09/01 11:23:20;;;;;;;1.15;0.60;;;20.00;99.90;;;;;;5058264;28;20043;-90
2023/09/01 11:25:48;;;;;;;1.08;0.47;;;20.00;99.90;;;;;;5070813;28;20363;-90
2023/09/01 11:28:14;;;;;;;2.80;0.80;;;20.00;99.90;;;;;;5067826;28;20044;-88
2023/09/01 11:30:57;;;;;;;1.92;0.70;;;19.90;99.90;;;;;;5069291;28;20036;-91
2023/09/01 11:33:25;;;;;;;2.75;0.60;;;19.80;99.90;;;;;;5053821;28;20092;-91
2023/09/01 11:36:12;;;;;;;1.35;0.55;;;19.80;99.90;;;;;;5052636;28;20052;-88
2023/09/01 11:38:38;;;;;;;2.05;0.80;;;19.60;99.90;;;;;;5053059;28;20097;-91
2023/09/01 11:41:08;;;;;;;4.25;1.00;;;19.70;99.90;;;;;;5069881;28;20043;-89
2023/09/01 11:43:40;;;;;;;2.90;0.80;;;19.80;99.90;;;;;;5069806;28;20170;-90
2023/09/01 11:46:06;;;;;;;3.28;0.88;;;19.90;99.90;;;;;;5060709;28;20036;-93
2023/09/01 11:48:32;;;;;;;3.03;0.68;;;20.00;99.90;;;;;;5053330;28;20035;-90
2023/09/01 11:50:59;;;;;;;1.92;0.80;;;20.10;99.90;;;;;;5055464;28;20501;-88
2023/09/01 11:53:29;;;;;;;2.85;1.05;;;20.10;99.90;;;;;;5069044;28;20055;-93
2023/09/01 11:56:03;;;;;;;1.52;0.80;;;20.20;99.90;;;;;;5069507;28;20078;-90
2023/09/01 11:58:32;;;;;;;2.20;1.10;;;20.20;99.90;;;;;;5068036;28;20055;-88
2023/09/01 12:01:10;;;;;;;2.17;0.80;;;20.20;99.90;;;;;;5091664;28;20043;-92
2023/09/01 12:03:37;;;;;;;1.50;0.50;;;20.20;99.90;;;;;;5071281;28;20062;-92
2023/09/01 12:06:29;;;;;;;3.10;0.90;;;20.30;99.90;;;;;;5067723;28;20122;-94
2023/09/01 12:09:13;;;;;;;4.32;0.90;;;20.40;99.90;;;;;;5063110;28;20135;-89
2023/09/01 12:11:56;;;;;;;3.78;0.80;;;20.30;99.90;;;;;;5094263;27;20051;-92
2023/09/01 12:14:29;;;;;;;1.92;0.70;;;20.40;99.90;;;;;;5102772;27;20047;-92
2023/09/01 12:16:56;;;;;;;1.92;0.73;;;20.50;99.90;;;;;;5112105;27;20051;-89
2023/09/01 12:19:26;;;;;;;2.83;0.60;;;20.50;99.90;;;;;;5127209;27;20054;-90
2023/09/01 12:21:53;;;;;;;2.17;0.75;;;20.50;99.90;;;;;;5092480;27;20123;-88
2023/09/01 12:24:19;;;;;;;2.47;1.08;;;20.40;99.90;;;;;;5090448;27;20035;-91
2023/09/01 12:26:46;;;;;;;2.55;1.10;;;20.10;99.90;;;;;;5082651;27;20507;-95
2023/09/01 12:29:12;;;;;;;;;;;20.00;99.90;;;;;;5110072;27;20035;-90
2023/09/01 12:31:38;;;;;;;2.08;0.77;;;19.90;99.90;;;;;;5107262;27;20377;-89
2023/09/01 12:34:03;;;;;;;2.30;0.75;;;20.00;99.90;;;;;;5109346;27;20047;-91
2023/09/01 12:36:30;;;;;;;2.53;0.82;;;20.10;99.90;;;;;;5116477;27;20091;-88
2023/09/01 12:38:55;;;;;;;2.27;0.80;;;20.20;99.90;;;;;;5087509;27;20126;-88
2023/09/01 12:41:21;;;;;;;1.65;0.60;;;20.30;99.90;;;;;;5088006;27;20122;-93
2023/09/01 12:43:47;;;;;;;2.35;1.00;;;20.30;99.90;;;;;;5075476;27;20570;-92
2023/09/01 12:46:13;;;;;;;3.40;0.80;;;20.40;99.90;;;;;;5081569;27;20110;-88
2023/09/01 12:48:39;;;;;;;1.15;0.60;;;20.40;99.90;;;;;;5108483;27;20118;-91
2023/09/01 12:51:05;;;;;;;2.47;0.90;;;20.40;99.90;;;;;;5089531;27;20039;-90
2023/09/01 12:53:31;;;;;;;2.63;1.25;;;20.40;99.90;;;;;;5081365;27;20049;-91
2023/09/01 12:56:00;;;;;;;3.50;1.20;;;20.40;99.90;;;;;;5090837;27;20477;-90